sensor_id;sensor_type;location;lat;lon;timestamp;temperature;humidity
17154;DHT22;8692;52.164;7.558;2023-04-06T00:00:55;3.60;99.90
17154;DHT22;8692;52.164;7.558;2023-04-06T00:03:23;3.60;99.90
17154;DHT22;8692;52.164;7.558;2023-04-06T00:05:54;3.60;99.90
17154;DHT22;8692;52.164;7.558;2023-04-06T00:08:25;3.50;99.90
17154;DHT22;8692;52.164;7.558;2023-04-06T00:10:55;3.50;99.90
17154;DHT22;8692;52.164;7.558;2023-04-06T00:13:24;3.50;99.90
17154;DHT22;8692;52.164;7.558;2023-04-06T00:15:52;3.40;99.90
17154;DHT22;8692;52.164;7.558;2023-04-06T00:18:20;3.40;99.90
17154;DHT22;8692;52.164;7.558;2023-04-06T00:20:48;3.40;99.90
17154;DHT22;8692;52.164;7.558;2023-04-06T00:23:20;3.40;99.90
17154;DHT22;8692;52.164;7.558;2023-04-06T00:25:48;3.30;99.90
17154;DHT22;8692;52.164;7.558;2023-04-06T00:28:18;3.30;99.90
17154;DHT22;8692;52.164;7.558;2023-04-06T00:30:52;3.20;99.90
17154;DHT22;8692;52.164;7.558;2023-04-06T00:33:22;3.20;99.90
17154;DHT22;8692;52.164;7.558;2023-04-06T00:35:54;3.20;99.90
17154;DHT22;8692;52.164;7.558;2023-04-06T00:38:22;3.20;99.90
17154;DHT22;8692;52.164;7.558;2023-04-06T00:40:50;3.10;99.90
17154;DHT22;8692;52.164;7.558;2023-04-06T00:43:20;3.10;99.90
17154;DHT22;8692;52.164;7.558;2023-04-06T00:45:48;3.00;99.90
17154;DHT22;8692;52.164;7.558;2023-04-06T00:48:17;3.00;99.90
17154;DHT22;8692;52.164;7.558;2023-04-06T00:50:47;3.00;99.90
17154;DHT22;8692;52.164;7.558;2023-04-06T00:53:17;3.00;99.90
17154;DHT22;8692;52.164;7.558;2023-04-06T00:55:48;3.00;99.90
17154;DHT22;8692;52.164;7.558;2023-04-06T00:58:20;2.90;99.90
17154;DHT22;8692;52.164;7.558;2023-04-06T01:00:53;2.90;99.90
17154;DHT22;8692;52.164;7.558;2023-04-06T01:03:23;2.90;99.90
17154;DHT22;8692;52.164;7.558;2023-04-06T01:05:51;2.90;99.90
17154;DHT22;8692;52.164;7.558;2023-04-06T01:08:30;2.90;99.90
17154;DHT22;8692;52.164;7.558;2023-04-06T01:11:12;2.80;99.90
17154;DHT22;8692;52.164;7.558;2023-04-06T01:13:42;2.80;99.90
17154;DHT22;8692;52.164;7.558;2023-04-06T01:16:23;2.80;99.90
17154;DHT22;8692;52.164;7.558;2023-04-06T01:19:13;2.80;99.90
17154;DHT22;8692;52.164;7.558;2023-04-06T01:21:46;2.80;99.90
17154;DHT22;8692;52.164;7.558;2023-04-06T01:24:41;2.70;99.90
17154;DHT22;8692;52.164;7.558;2023-04-06T01:27:22;2.70;99.90
17154;DHT22;8692;52.164;7.558;2023-04-06T01:30:16;2.70;99.90
17154;DHT22;8692;52.164;7.558;2023-04-06T01:32:51;2.70;99.90
17154;DHT22;8692;52.164;7.558;2023-04-06T01:35:38;2.60;99.90
17154;DHT22;8692;52.164;7.558;2023-04-06T01:38:15;2.60;99.90
17154;DHT22;8692;52.164;7.558;2023-04-06T01:40:46;2.60;99.90
17154;DHT22;8692;52.164;7.558;2023-04-06T01:43:17;2.60;99.90
17154;DHT22;8692;52.164;7.558;2023-04-06T01:46:05;2.50;99.90
17154;DHT22;8692;52.164;7.558;2023-04-06T01:48:36;2.50;99.90
17154;DHT22;8692;52.164;7.558;2023-04-06T01:51:32;2.50;99.90
17154;DHT22;8692;52.164;7.558;2023-04-06T01:54:05;2.40;99.90
17154;DHT22;8692;52.164;7.558;2023-04-06T01:56:55;2.40;99.90
17154;DHT22;8692;52.164;7.558;2023-04-06T01:59:31;2.40;99.90
17154;DHT22;8692;52.164;7.558;2023-04-06T02:02:04;2.40;99.90
17154;DHT22;8692;52.164;7.558;2023-04-06T02:04:34;2.30;99.90
17154;DHT22;8692;52.164;7.558;2023-04-06T02:07:13;2.30;99.90
17154;DHT22;8692;52.164;7.558;2023-04-06T02:09:42;2.30;99.90
17154;DHT22;8692;52.164;7.558;2023-04-06T02:12:21;2.30;99.90
17154;DHT22;8692;52.164;7.558;2023-04-06T02:14:50;2.20;99.90
17154;DHT22;8692;52.164;7.558;2023-04-06T02:17:19;2.20;99.90
17154;DHT22;8692;52.164;7.558;2023-04-06T02:19:47;2.20;99.90
17154;DHT22;8692;52.164;7.558;2023-04-06T02:22:16;2.20;99.90
17154;DHT22;8692;52.164;7.558;2023-04-06T02:24:46;2.10;99.90
17154;DHT22;8692;52.164;7.558;2023-04-06T02:27:15;2.10;99.90
17154;DHT22;8692;52.164;7.558;2023-04-06T02:29:47;2.10;99.90
17154;DHT22;8692;52.164;7.558;2023-04-06T02:32:19;2.10;99.90
17154;DHT22;8692;52.164;7.558;2023-04-06T02:34:48;2.10;99.90
17154;DHT22;8692;52.164;7.558;2023-04-06T02:37:19;2.10;99.90
17154;DHT22;8692;52.164;7.558;2023-04-06T02:39:48;2.00;99.90
17154;DHT22;8692;52.164;7.558;2023-04-06T02:42:17;2.00;99.90
17154;DHT22;8692;52.164;7.558;2023-04-06T02:44:49;1.90;99.90
17154;DHT22;8692;52.164;7.558;2023-04-06T02:47:24;2.00;99.90
17154;DHT22;8692;52.164;7.558;2023-04-06T02:49:54;1.90;99.90
17154;DHT22;8692;52.164;7.558;2023-04-06T02:52:23;1.90;99.90
17154;DHT22;8692;52.164;7.558;2023-04-06T02:54:54;1.90;99.90
17154;DHT22;8692;52.164;7.558;2023-04-06T02:57:26;1.90;99.90
17154;DHT22;8692;52.164;7.558;2023-04-06T02:59:56;1.90;99.90
17154;DHT22;8692;52.164;7.558;2023-04-06T03:02:33;1.90;99.90
17154;DHT22;8692;52.164;7.558;2023-04-06T03:05:07;1.80;99.90
17154;DHT22;8692;52.164;7.558;2023-04-06T03:07:40;1.80;99.90
17154;DHT22;8692;52.164;7.558;2023-04-06T03:10:14;1.80;99.90
17154;DHT22;8692;52.164;7.558;2023-04-06T03:12:46;1.80;99.90
17154;DHT22;8692;52.164;7.558;2023-04-06T03:15:35;1.80;99.90
17154;DHT22;8692;52.164;7.558;2023-04-06T03:18:12;1.70;99.90
17154;DHT22;8692;52.164;7.558;2023-04-06T03:20:45;1.70;99.90
17154;DHT22;8692;52.164;7.558;2023-04-06T03:23:16;1.70;99.90
17154;DHT22;8692;52.164;7.558;2023-04-06T03:25:45;1.70;99.90
17154;DHT22;8692;52.164;7.558;2023-04-06T03:28:17;1.70;99.90
17154;DHT22;8692;52.164;7.558;2023-04-06T03:30:52;1.60;99.90
17154;DHT22;8692;52.164;7.558;2023-04-06T03:33:38;1.60;99.90
17154;DHT22;8692;52.164;7.558;2023-04-06T03:36:11;1.60;99.90
17154;DHT22;8692;52.164;7.558;2023-04-06T03:38:42;1.60;99.90
17154;DHT22;8692;52.164;7.558;2023-04-06T03:41:13;1.60;99.90
17154;DHT22;8692;52.164;7.558;2023-04-06T03:43:48;1.60;99.90
17154;DHT22;8692;52.164;7.558;2023-04-06T03:46:20;1.60;99.90
17154;DHT22;8692;52.164;7.558;2023-04-06T03:48:52;1.60;99.90
17154;DHT22;8692;52.164;7.558;2023-04-06T03:51:23;1.60;99.90
17154;DHT22;8692;52.164;7.558;2023-04-06T03:53:52;1.60;99.90
17154;DHT22;8692;52.164;7.558;2023-04-06T03:56:20;1.60;99.90
17154;DHT22;8692;52.164;7.558;2023-04-06T03:58:48;1.60;99.90
17154;DHT22;8692;52.164;7.558;2023-04-06T04:01:21;1.60;99.90
17154;DHT22;8692;52.164;7.558;2023-04-06T04:03:49;1.60;99.90
17154;DHT22;8692;52.164;7.558;2023-04-06T04:06:18;1.60;99.90
17154;DHT22;8692;52.164;7.558;2023-04-06T04:08:46;1.50;99.90
17154;DHT22;8692;52.164;7.558;2023-04-06T04:11:17;1.60;99.90
17154;DHT22;8692;52.164;7.558;2023-04-06T04:13:50;1.50;99.90
17154;DHT22;8692;52.164;7.558;2023-04-06T04:16:22;1.50;99.90
17154;DHT22;8692;52.164;7.558;2023-04-06T04:18:50;1.50;99.90
17154;DHT22;8692;52.164;7.558;2023-04-06T04:21:22;1.50;99.90
17154;DHT22;8692;52.164;7.558;2023-04-06T04:23:55;1.50;99.90
17154;DHT22;8692;52.164;7.558;2023-04-06T04:26:24;1.40;99.90
17154;DHT22;8692;52.164;7.558;2023-04-06T04:28:53;1.40;99.90
17154;DHT22;8692;52.164;7.558;2023-04-06T04:31:25;1.40;99.90
17154;DHT22;8692;52.164;7.558;2023-04-06T04:33:59;1.40;99.90
17154;DHT22;8692;52.164;7.558;2023-04-06T04:36:31;1.40;99.90
17154;DHT22;8692;52.164;7.558;2023-04-06T04:39:03;1.30;99.90
17154;DHT22;8692;52.164;7.558;2023-04-06T04:41:37;1.30;99.90
17154;DHT22;8692;52.164;7.558;2023-04-06T04:44:09;1.30;99.90
17154;DHT22;8692;52.164;7.558;2023-04-06T04:46:39;1.20;99.90
17154;DHT22;8692;52.164;7.558;2023-04-06T04:49:09;1.20;99.90
17154;DHT22;8692;52.164;7.558;2023-04-06T04:51:39;1.20;99.90
17154;DHT22;8692;52.164;7.558;2023-04-06T04:54:11;1.20;99.90
17154;DHT22;8692;52.164;7.558;2023-04-06T04:56:41;1.20;99.90
17154;DHT22;8692;52.164;7.558;2023-04-06T04:59:21;1.20;99.90
17154;DHT22;8692;52.164;7.558;2023-04-06T05:02:00;1.20;99.90
17154;DHT22;8692;52.164;7.558;2023-04-06T05:04:38;1.20;99.90
17154;DHT22;8692;52.164;7.558;2023-04-06T05:07:10;1.20;99.90
17154;DHT22;8692;52.164;7.558;2023-04-06T05:09:40;1.20;99.90
17154;DHT22;8692;52.164;7.558;2023-04-06T05:12:12;1.20;99.90
17154;DHT22;8692;52.164;7.558;2023-04-06T05:14:50;1.20;99.90
17154;DHT22;8692;52.164;7.558;2023-04-06T05:17:22;1.20;99.90
17154;DHT22;8692;52.164;7.558;2023-04-06T05:19:52;1.20;99.90
17154;DHT22;8692;52.164;7.558;2023-04-06T05:22:24;1.20;99.90
17154;DHT22;8692;52.164;7.558;2023-04-06T05:25:02;1.20;99.90
17154;DHT22;8692;52.164;7.558;2023-04-06T05:27:31;1.20;99.90
17154;DHT22;8692;52.164;7.558;2023-04-06T05:30:06;1.20;99.90
17154;DHT22;8692;52.164;7.558;2023-04-06T05:32:42;1.30;99.90
17154;DHT22;8692;52.164;7.558;2023-04-06T05:35:11;1.30;99.90
17154;DHT22;8692;52.164;7.558;2023-04-06T05:37:44;1.30;99.90
17154;DHT22;8692;52.164;7.558;2023-04-06T05:40:12;1.30;99.90
17154;DHT22;8692;52.164;7.558;2023-04-06T05:42:42;1.30;99.90
17154;DHT22;8692;52.164;7.558;2023-04-06T05:45:12;1.30;99.90
17154;DHT22;8692;52.164;7.558;2023-04-06T05:47:48;1.30;99.90
17154;DHT22;8692;52.164;7.558;2023-04-06T05:50:22;1.30;99.90
17154;DHT22;8692;52.164;7.558;2023-04-06T05:52:50;1.40;99.90
17154;DHT22;8692;52.164;7.558;2023-04-06T05:55:22;1.40;99.90
17154;DHT22;8692;52.164;7.558;2023-04-06T05:57:59;1.50;99.90
17154;DHT22;8692;52.164;7.558;2023-04-06T06:00:30;1.50;99.90
17154;DHT22;8692;52.164;7.558;2023-04-06T06:03:05;1.50;99.90
17154;DHT22;8692;52.164;7.558;2023-04-06T06:05:40;1.60;99.90
17154;DHT22;8692;52.164;7.558;2023-04-06T06:08:14;1.60;99.90
17154;DHT22;8692;52.164;7.558;2023-04-06T06:10:43;1.70;99.90
17154;DHT22;8692;52.164;7.558;2023-04-06T06:13:15;1.70;99.90
17154;DHT22;8692;52.164;7.558;2023-04-06T06:15:44;1.80;99.90
17154;DHT22;8692;52.164;7.558;2023-04-06T06:18:14;1.90;99.90
17154;DHT22;8692;52.164;7.558;2023-04-06T06:20:43;1.90;99.90
17154;DHT22;8692;52.164;7.558;2023-04-06T06:23:11;1.90;99.90
17154;DHT22;8692;52.164;7.558;2023-04-06T06:25:42;2.00;99.90
17154;DHT22;8692;52.164;7.558;2023-04-06T06:28:13;2.00;99.90
17154;DHT22;8692;52.164;7.558;2023-04-06T06:30:41;2.10;99.90
17154;DHT22;8692;52.164;7.558;2023-04-06T06:33:10;2.20;99.90
17154;DHT22;8692;52.164;7.558;2023-04-06T06:35:42;2.20;99.90
17154;DHT22;8692;52.164;7.558;2023-04-06T06:38:10;2.30;99.90
17154;DHT22;8692;52.164;7.558;2023-04-06T06:40:39;2.30;99.90
17154;DHT22;8692;52.164;7.558;2023-04-06T06:43:10;2.40;99.90
17154;DHT22;8692;52.164;7.558;2023-04-06T06:46:00;2.50;99.90
17154;DHT22;8692;52.164;7.558;2023-04-06T06:48:29;2.50;99.90
17154;DHT22;8692;52.164;7.558;2023-04-06T06:50:58;2.60;99.90
17154;DHT22;8692;52.164;7.558;2023-04-06T06:53:27;2.60;99.90
17154;DHT22;8692;52.164;7.558;2023-04-06T06:55:55;2.70;99.90
17154;DHT22;8692;52.164;7.558;2023-04-06T06:58:24;2.80;99.90
17154;DHT22;8692;52.164;7.558;2023-04-06T07:00:56;2.80;99.90
17154;DHT22;8692;52.164;7.558;2023-04-06T07:03:26;2.90;99.90
17154;DHT22;8692;52.164;7.558;2023-04-06T07:06:01;2.90;99.90
17154;DHT22;8692;52.164;7.558;2023-04-06T07:08:32;3.00;99.90
17154;DHT22;8692;52.164;7.558;2023-04-06T07:11:03;3.10;99.90
17154;DHT22;8692;52.164;7.558;2023-04-06T07:13:31;3.20;99.90
17154;DHT22;8692;52.164;7.558;2023-04-06T07:16:01;3.20;99.90
17154;DHT22;8692;52.164;7.558;2023-04-06T07:18:29;3.30;99.90
17154;DHT22;8692;52.164;7.558;2023-04-06T07:21:03;3.30;99.90
17154;DHT22;8692;52.164;7.558;2023-04-06T07:23:34;3.40;99.90
17154;DHT22;8692;52.164;7.558;2023-04-06T07:26:06;3.50;99.90
17154;DHT22;8692;52.164;7.558;2023-04-06T07:28:37;3.60;99.90
17154;DHT22;8692;52.164;7.558;2023-04-06T07:31:09;3.70;99.90
17154;DHT22;8692;52.164;7.558;2023-04-06T07:33:38;3.80;99.90
17154;DHT22;8692;52.164;7.558;2023-04-06T07:36:08;3.90;99.90
17154;DHT22;8692;52.164;7.558;2023-04-06T07:38:40;4.00;99.90
17154;DHT22;8692;52.164;7.558;2023-04-06T07:41:10;4.10;99.90
17154;DHT22;8692;52.164;7.558;2023-04-06T07:43:42;4.20;99.90
17154;DHT22;8692;52.164;7.558;2023-04-06T07:46:10;4.30;99.90
17154;DHT22;8692;52.164;7.558;2023-04-06T07:48:39;4.40;99.90
17154;DHT22;8692;52.164;7.558;2023-04-06T07:51:11;4.50;99.90
17154;DHT22;8692;52.164;7.558;2023-04-06T07:53:42;4.60;99.90
17154;DHT22;8692;52.164;7.558;2023-04-06T07:56:10;4.70;99.90
17154;DHT22;8692;52.164;7.558;2023-04-06T07:58:39;4.80;99.90
17154;DHT22;8692;52.164;7.558;2023-04-06T08:01:10;4.90;99.90
17154;DHT22;8692;52.164;7.558;2023-04-06T08:03:39;5.00;99.90
17154;DHT22;8692;52.164;7.558;2023-04-06T08:06:11;5.10;99.90
17154;DHT22;8692;52.164;7.558;2023-04-06T08:08:41;5.30;99.90
17154;DHT22;8692;52.164;7.558;2023-04-06T08:11:09;5.40;99.90
17154;DHT22;8692;52.164;7.558;2023-04-06T08:13:38;5.50;99.90
17154;DHT22;8692;52.164;7.558;2023-04-06T08:16:08;5.60;99.90
17154;DHT22;8692;52.164;7.558;2023-04-06T08:18:37;5.70;99.90
17154;DHT22;8692;52.164;7.558;2023-04-06T08:21:05;5.80;99.90
17154;DHT22;8692;52.164;7.558;2023-04-06T08:23:35;5.90;99.90
17154;DHT22;8692;52.164;7.558;2023-04-06T08:26:03;6.00;99.90
17154;DHT22;8692;52.164;7.558;2023-04-06T08:28:36;6.10;99.90
17154;DHT22;8692;52.164;7.558;2023-04-06T08:31:05;6.30;99.90
17154;DHT22;8692;52.164;7.558;2023-04-06T08:33:36;6.40;99.90
17154;DHT22;8692;52.164;7.558;2023-04-06T08:36:10;6.50;99.90
17154;DHT22;8692;52.164;7.558;2023-04-06T08:38:40;6.60;99.90
17154;DHT22;8692;52.164;7.558;2023-04-06T08:41:10;6.70;99.90
17154;DHT22;8692;52.164;7.558;2023-04-06T08:43:43;6.80;99.90
17154;DHT22;8692;52.164;7.558;2023-04-06T08:46:11;6.90;99.90
17154;DHT22;8692;52.164;7.558;2023-04-06T08:48:41;7.00;99.30
17154;DHT22;8692;52.164;7.558;2023-04-06T08:51:10;7.10;99.90
17154;DHT22;8692;52.164;7.558;2023-04-06T08:53:40;7.20;97.60
17154;DHT22;8692;52.164;7.558;2023-04-06T08:56:09;7.40;96.90
17154;DHT22;8692;52.164;7.558;2023-04-06T08:58:39;7.50;95.80
17154;DHT22;8692;52.164;7.558;2023-04-06T09:01:12;7.60;95.30
17154;DHT22;8692;52.164;7.558;2023-04-06T09:03:43;7.70;96.50
17154;DHT22;8692;52.164;7.558;2023-04-06T09:06:13;7.80;96.30
17154;DHT22;8692;52.164;7.558;2023-04-06T09:08:43;7.90;96.20
17154;DHT22;8692;52.164;7.558;2023-04-06T09:11:11;8.00;95.60
17154;DHT22;8692;52.164;7.558;2023-04-06T09:13:46;8.10;95.70
17154;DHT22;8692;52.164;7.558;2023-04-06T09:16:15;8.30;95.30
17154;DHT22;8692;52.164;7.558;2023-04-06T09:18:46;8.40;94.40
17154;DHT22;8692;52.164;7.558;2023-04-06T09:21:17;8.60;94.30
17154;DHT22;8692;52.164;7.558;2023-04-06T09:23:59;8.70;93.90
17154;DHT22;8692;52.164;7.558;2023-04-06T09:26:28;8.80;91.90
17154;DHT22;8692;52.164;7.558;2023-04-06T09:28:57;9.00;91.70
17154;DHT22;8692;52.164;7.558;2023-04-06T09:31:27;9.10;91.10
17154;DHT22;8692;52.164;7.558;2023-04-06T09:33:57;9.20;90.20
17154;DHT22;8692;52.164;7.558;2023-04-06T09:36:32;9.30;89.90
17154;DHT22;8692;52.164;7.558;2023-04-06T09:39:05;9.40;88.00
17154;DHT22;8692;52.164;7.558;2023-04-06T09:41:35;9.60;85.70
17154;DHT22;8692;52.164;7.558;2023-04-06T09:44:05;9.80;85.00
17154;DHT22;8692;52.164;7.558;2023-04-06T09:46:37;9.90;85.40
17154;DHT22;8692;52.164;7.558;2023-04-06T09:49:27;10.10;82.90
17154;DHT22;8692;52.164;7.558;2023-04-06T09:51:59;10.20;78.00
17154;DHT22;8692;52.164;7.558;2023-04-06T09:54:31;10.40;78.40
17154;DHT22;8692;52.164;7.558;2023-04-06T09:57:07;10.60;78.60
17154;DHT22;8692;52.164;7.558;2023-04-06T09:59:45;10.70;77.60
17154;DHT22;8692;52.164;7.558;2023-04-06T10:02:22;10.80;78.20
17154;DHT22;8692;52.164;7.558;2023-04-06T10:04:58;10.90;73.30
17154;DHT22;8692;52.164;7.558;2023-04-06T10:07:31;11.00;73.30
17154;DHT22;8692;52.164;7.558;2023-04-06T10:10:02;11.20;73.80
17154;DHT22;8692;52.164;7.558;2023-04-06T10:12:31;11.30;73.80
17154;DHT22;8692;52.164;7.558;2023-04-06T10:15:02;11.40;70.70
17154;DHT22;8692;52.164;7.558;2023-04-06T10:17:31;11.50;67.70
17154;DHT22;8692;52.164;7.558;2023-04-06T10:20:06;11.50;66.20
17154;DHT22;8692;52.164;7.558;2023-04-06T10:22:38;11.60;67.50
17154;DHT22;8692;52.164;7.558;2023-04-06T10:25:10;11.80;66.90
17154;DHT22;8692;52.164;7.558;2023-04-06T10:27:39;11.90;66.90
17154;DHT22;8692;52.164;7.558;2023-04-06T10:30:10;12.00;66.00
17154;DHT22;8692;52.164;7.558;2023-04-06T10:32:41;12.20;64.00
17154;DHT22;8692;52.164;7.558;2023-04-06T10:35:11;12.30;65.80
17154;DHT22;8692;52.164;7.558;2023-04-06T10:37:51;12.40;64.50
17154;DHT22;8692;52.164;7.558;2023-04-06T10:40:25;12.30;63.50
17154;DHT22;8692;52.164;7.558;2023-04-06T10:43:07;12.20;64.30
17154;DHT22;8692;52.164;7.558;2023-04-06T10:45:36;12.30;64.50
17154;DHT22;8692;52.164;7.558;2023-04-06T10:48:13;12.30;62.80
17154;DHT22;8692;52.164;7.558;2023-04-06T10:50:46;12.40;64.50
17154;DHT22;8692;52.164;7.558;2023-04-06T10:53:21;12.50;63.60
17154;DHT22;8692;52.164;7.558;2023-04-06T10:55:56;12.60;63.30
17154;DHT22;8692;52.164;7.558;2023-04-06T10:58:25;12.70;62.70
17154;DHT22;8692;52.164;7.558;2023-04-06T11:00:54;12.70;63.10
17154;DHT22;8692;52.164;7.558;2023-04-06T11:03:23;12.80;61.40
17154;DHT22;8692;52.164;7.558;2023-04-06T11:05:52;12.80;61.80
17154;DHT22;8692;52.164;7.558;2023-04-06T11:08:25;12.80;60.40
17154;DHT22;8692;52.164;7.558;2023-04-06T11:11:08;12.80;61.60
17154;DHT22;8692;52.164;7.558;2023-04-06T11:13:42;12.90;59.20
17154;DHT22;8692;52.164;7.558;2023-04-06T11:16:14;12.90;59.40
17154;DHT22;8692;52.164;7.558;2023-04-06T11:18:53;13.00;59.40
17154;DHT22;8692;52.164;7.558;2023-04-06T11:21:33;13.00;59.70
17154;DHT22;8692;52.164;7.558;2023-04-06T11:24:10;13.00;57.40
17154;DHT22;8692;52.164;7.558;2023-04-06T11:26:47;13.00;57.00
17154;DHT22;8692;52.164;7.558;2023-04-06T11:29:18;13.10;58.00
17154;DHT22;8692;52.164;7.558;2023-04-06T11:31:49;13.10;58.50
17154;DHT22;8692;52.164;7.558;2023-04-06T11:34:19;13.10;57.90
17154;DHT22;8692;52.164;7.558;2023-04-06T11:36:49;13.20;57.90
17154;DHT22;8692;52.164;7.558;2023-04-06T11:39:19;13.20;58.80
17154;DHT22;8692;52.164;7.558;2023-04-06T11:41:52;13.20;58.60
17154;DHT22;8692;52.164;7.558;2023-04-06T11:44:32;13.20;58.00
17154;DHT22;8692;52.164;7.558;2023-04-06T11:47:02;13.30;57.70
17154;DHT22;8692;52.164;7.558;2023-04-06T11:49:32;13.30;58.60
17154;DHT22;8692;52.164;7.558;2023-04-06T11:52:01;13.40;58.20
17154;DHT22;8692;52.164;7.558;2023-04-06T11:54:31;13.40;58.20
17154;DHT22;8692;52.164;7.558;2023-04-06T11:57:02;13.50;57.30
17154;DHT22;8692;52.164;7.558;2023-04-06T11:59:31;13.50;57.90
17154;DHT22;8692;52.164;7.558;2023-04-06T12:02:03;13.50;55.70
17154;DHT22;8692;52.164;7.558;2023-04-06T12:04:32;13.50;55.90
17154;DHT22;8692;52.164;7.558;2023-04-06T12:07:02;13.50;56.30
17154;DHT22;8692;52.164;7.558;2023-04-06T12:09:30;13.60;55.50
17154;DHT22;8692;52.164;7.558;2023-04-06T12:12:02;13.60;55.30
17154;DHT22;8692;52.164;7.558;2023-04-06T12:14:31;13.60;56.30
17154;DHT22;8692;52.164;7.558;2023-04-06T12:16:59;13.70;55.90
17154;DHT22;8692;52.164;7.558;2023-04-06T12:19:30;13.60;55.20
17154;DHT22;8692;52.164;7.558;2023-04-06T12:21:58;13.60;55.70
17154;DHT22;8692;52.164;7.558;2023-04-06T12:24:27;13.60;55.10
17154;DHT22;8692;52.164;7.558;2023-04-06T12:26:58;13.60;55.30
17154;DHT22;8692;52.164;7.558;2023-04-06T12:29:38;13.70;55.10
17154;DHT22;8692;52.164;7.558;2023-04-06T12:32:06;13.70;53.90
17154;DHT22;8692;52.164;7.558;2023-04-06T12:34:38;13.80;54.60
17154;DHT22;8692;52.164;7.558;2023-04-06T12:37:06;13.80;53.90
17154;DHT22;8692;52.164;7.558;2023-04-06T12:39:34;13.80;55.00
17154;DHT22;8692;52.164;7.558;2023-04-06T12:42:03;13.80;55.30
17154;DHT22;8692;52.164;7.558;2023-04-06T12:44:31;13.80;55.60
17154;DHT22;8692;52.164;7.558;2023-04-06T12:47:01;13.80;54.30
17154;DHT22;8692;52.164;7.558;2023-04-06T12:49:29;13.80;55.10
17154;DHT22;8692;52.164;7.558;2023-04-06T12:51:58;13.80;55.60
17154;DHT22;8692;52.164;7.558;2023-04-06T12:54:27;13.80;55.60
17154;DHT22;8692;52.164;7.558;2023-04-06T12:56:55;13.80;55.00
17154;DHT22;8692;52.164;7.558;2023-04-06T12:59:24;13.80;54.90
17154;DHT22;8692;52.164;7.558;2023-04-06T13:01:52;13.80;55.40
17154;DHT22;8692;52.164;7.558;2023-04-06T13:04:23;13.80;55.30
17154;DHT22;8692;52.164;7.558;2023-04-06T13:06:51;13.80;55.90
17154;DHT22;8692;52.164;7.558;2023-04-06T13:09:19;13.80;54.90
17154;DHT22;8692;52.164;7.558;2023-04-06T13:11:48;13.80;55.80
17154;DHT22;8692;52.164;7.558;2023-04-06T13:14:18;13.90;56.30
17154;DHT22;8692;52.164;7.558;2023-04-06T13:16:47;13.90;56.50
17154;DHT22;8692;52.164;7.558;2023-04-06T13:19:18;14.00;55.90
17154;DHT22;8692;52.164;7.558;2023-04-06T13:21:48;14.00;54.40
17154;DHT22;8692;52.164;7.558;2023-04-06T13:24:18;14.00;54.60
17154;DHT22;8692;52.164;7.558;2023-04-06T13:26:51;14.10;54.90
17154;DHT22;8692;52.164;7.558;2023-04-06T13:29:21;14.10;54.60
17154;DHT22;8692;52.164;7.558;2023-04-06T13:31:52;14.20;55.80
17154;DHT22;8692;52.164;7.558;2023-04-06T13:34:21;14.20;54.70
17154;DHT22;8692;52.164;7.558;2023-04-06T13:36:50;14.10;54.30
17154;DHT22;8692;52.164;7.558;2023-04-06T13:39:18;14.10;54.60
17154;DHT22;8692;52.164;7.558;2023-04-06T13:41:47;14.10;53.10
17154;DHT22;8692;52.164;7.558;2023-04-06T13:44:17;14.00;52.90
17154;DHT22;8692;52.164;7.558;2023-04-06T13:46:48;14.00;54.10
17154;DHT22;8692;52.164;7.558;2023-04-06T13:49:16;14.00;55.20
17154;DHT22;8692;52.164;7.558;2023-04-06T13:51:47;14.10;54.00
17154;DHT22;8692;52.164;7.558;2023-04-06T13:54:19;14.10;53.70
17154;DHT22;8692;52.164;7.558;2023-04-06T13:56:51;14.00;53.70
17154;DHT22;8692;52.164;7.558;2023-04-06T13:59:20;14.00;53.80
17154;DHT22;8692;52.164;7.558;2023-04-06T14:01:48;14.00;54.40
17154;DHT22;8692;52.164;7.558;2023-04-06T14:04:16;14.00;54.60
17154;DHT22;8692;52.164;7.558;2023-04-06T14:06:45;14.00;54.10
17154;DHT22;8692;52.164;7.558;2023-04-06T14:09:17;14.00;55.20
17154;DHT22;8692;52.164;7.558;2023-04-06T14:11:45;14.00;54.50
17154;DHT22;8692;52.164;7.558;2023-04-06T14:14:14;13.90;55.20
17154;DHT22;8692;52.164;7.558;2023-04-06T14:16:44;13.90;55.30
17154;DHT22;8692;52.164;7.558;2023-04-06T14:19:17;14.00;55.30
17154;DHT22;8692;52.164;7.558;2023-04-06T14:21:45;14.00;55.40
17154;DHT22;8692;52.164;7.558;2023-04-06T14:24:13;14.00;55.80
17154;DHT22;8692;52.164;7.558;2023-04-06T14:26:44;14.00;56.20
17154;DHT22;8692;52.164;7.558;2023-04-06T14:29:12;14.00;56.00
17154;DHT22;8692;52.164;7.558;2023-04-06T14:31:40;14.00;56.80
17154;DHT22;8692;52.164;7.558;2023-04-06T14:34:10;14.00;56.40
17154;DHT22;8692;52.164;7.558;2023-04-06T14:36:38;13.90;56.30
17154;DHT22;8692;52.164;7.558;2023-04-06T14:39:07;13.90;56.70
17154;DHT22;8692;52.164;7.558;2023-04-06T14:41:39;13.80;56.10
17154;DHT22;8692;52.164;7.558;2023-04-06T14:44:09;13.80;56.00
17154;DHT22;8692;52.164;7.558;2023-04-06T14:46:39;13.70;56.90
17154;DHT22;8692;52.164;7.558;2023-04-06T14:49:10;13.70;56.90
17154;DHT22;8692;52.164;7.558;2023-04-06T14:51:38;13.60;56.70
17154;DHT22;8692;52.164;7.558;2023-04-06T14:54:07;13.60;57.50
17154;DHT22;8692;52.164;7.558;2023-04-06T14:56:35;13.60;57.80
17154;DHT22;8692;52.164;7.558;2023-04-06T14:59:05;13.60;58.60
17154;DHT22;8692;52.164;7.558;2023-04-06T15:01:35;13.50;59.00
17154;DHT22;8692;52.164;7.558;2023-04-06T15:04:03;13.50;59.20
17154;DHT22;8692;52.164;7.558;2023-04-06T15:06:32;13.50;59.90
17154;DHT22;8692;52.164;7.558;2023-04-06T15:09:00;13.50;60.20
17154;DHT22;8692;52.164;7.558;2023-04-06T15:11:29;13.50;60.80
17154;DHT22;8692;52.164;7.558;2023-04-06T15:14:00;13.40;60.70
17154;DHT22;8692;52.164;7.558;2023-04-06T15:16:28;13.40;60.80
17154;DHT22;8692;52.164;7.558;2023-04-06T15:19:00;13.40;61.00
17154;DHT22;8692;52.164;7.558;2023-04-06T15:21:31;13.40;62.40
17154;DHT22;8692;52.164;7.558;2023-04-06T15:24:02;13.40;62.80
17154;DHT22;8692;52.164;7.558;2023-04-06T15:26:33;13.40;62.40
17154;DHT22;8692;52.164;7.558;2023-04-06T15:29:01;13.30;63.40
17154;DHT22;8692;52.164;7.558;2023-04-06T15:31:29;13.30;64.10
17154;DHT22;8692;52.164;7.558;2023-04-06T15:34:08;13.30;64.70
17154;DHT22;8692;52.164;7.558;2023-04-06T15:36:38;13.20;64.80
17154;DHT22;8692;52.164;7.558;2023-04-06T15:39:07;13.10;64.40
17154;DHT22;8692;52.164;7.558;2023-04-06T15:41:36;13.00;65.00
17154;DHT22;8692;52.164;7.558;2023-04-06T15:44:04;13.00;65.40
17154;DHT22;8692;52.164;7.558;2023-04-06T15:46:32;13.00;66.20
17154;DHT22;8692;52.164;7.558;2023-04-06T15:49:03;12.90;66.00
17154;DHT22;8692;52.164;7.558;2023-04-06T15:51:32;12.80;66.60
17154;DHT22;8692;52.164;7.558;2023-04-06T15:54:00;12.70;66.60
17154;DHT22;8692;52.164;7.558;2023-04-06T15:56:29;12.70;67.00
17154;DHT22;8692;52.164;7.558;2023-04-06T15:59:07;12.70;67.50
17154;DHT22;8692;52.164;7.558;2023-04-06T16:01:35;12.70;67.90
17154;DHT22;8692;52.164;7.558;2023-04-06T16:04:06;12.60;67.80
17154;DHT22;8692;52.164;7.558;2023-04-06T16:06:36;12.60;67.80
17154;DHT22;8692;52.164;7.558;2023-04-06T16:09:04;12.50;68.40
17154;DHT22;8692;52.164;7.558;2023-04-06T16:11:36;12.50;68.70
17154;DHT22;8692;52.164;7.558;2023-04-06T16:14:07;12.50;69.50
17154;DHT22;8692;52.164;7.558;2023-04-06T16:16:35;12.50;69.80
17154;DHT22;8692;52.164;7.558;2023-04-06T16:19:04;12.50;70.40
17154;DHT22;8692;52.164;7.558;2023-04-06T16:21:32;12.50;70.90